sensor_id;sensor_type;location;lat;lon;timestamp;temperature;humidity
15666;DHT22;20725;51.196;3.510;2022-10-31T00:01:29;11.20;99.90
15666;DHT22;20725;51.196;3.510;2022-10-31T00:03:57;11.20;99.90
15666;DHT22;20725;51.196;3.510;2022-10-31T00:06:27;11.10;99.90
15666;DHT22;20725;51.196;3.510;2022-10-31T00:08:59;11.10;99.90
15666;DHT22;20725;51.196;3.510;2022-10-31T00:11:27;11.20;99.90
15666;DHT22;20725;51.196;3.510;2022-10-31T00:13:59;11.20;99.90
15666;DHT22;20725;51.196;3.510;2022-10-31T00:16:29;11.10;99.90
15666;DHT22;20725;51.196;3.510;2022-10-31T00:18:58;11.10;99.90
15666;DHT22;20725;51.196;3.510;2022-10-31T00:21:34;11.00;99.90
15666;DHT22;20725;51.196;3.510;2022-10-31T00:24:04;11.20;99.90
15666;DHT22;20725;51.196;3.510;2022-10-31T00:26:31;11.20;99.90
15666;DHT22;20725;51.196;3.510;2022-10-31T00:29:05;11.10;99.90
15666;DHT22;20725;51.196;3.510;2022-10-31T00:31:32;11.10;99.90
15666;DHT22;20725;51.196;3.510;2022-10-31T00:34:01;11.10;99.90
15666;DHT22;20725;51.196;3.510;2022-10-31T00:36:32;11.00;99.90
15666;DHT22;20725;51.196;3.510;2022-10-31T00:39:01;10.90;99.90
15666;DHT22;20725;51.196;3.510;2022-10-31T00:41:31;10.90;99.90
15666;DHT22;20725;51.196;3.510;2022-10-31T00:44:00;10.80;99.90
15666;DHT22;20725;51.196;3.510;2022-10-31T00:46:31;10.70;99.90
15666;DHT22;20725;51.196;3.510;2022-10-31T00:49:00;10.70;99.90
15666;DHT22;20725;51.196;3.510;2022-10-31T00:51:27;10.60;99.90
15666;DHT22;20725;51.196;3.510;2022-10-31T00:53:54;10.60;99.90
15666;DHT22;20725;51.196;3.510;2022-10-31T00:56:22;10.60;99.90
15666;DHT22;20725;51.196;3.510;2022-10-31T00:58:49;10.50;99.90
15666;DHT22;20725;51.196;3.510;2022-10-31T01:01:16;10.50;99.90
15666;DHT22;20725;51.196;3.510;2022-10-31T01:03:48;10.40;99.90
15666;DHT22;20725;51.196;3.510;2022-10-31T01:06:15;10.40;99.90
15666;DHT22;20725;51.196;3.510;2022-10-31T01:08:47;10.30;99.90
15666;DHT22;20725;51.196;3.510;2022-10-31T01:11:15;10.30;99.90
15666;DHT22;20725;51.196;3.510;2022-10-31T01:13:45;10.30;99.90
15666;DHT22;20725;51.196;3.510;2022-10-31T01:16:18;10.20;99.90
15666;DHT22;20725;51.196;3.510;2022-10-31T01:18:53;10.20;99.90
15666;DHT22;20725;51.196;3.510;2022-10-31T01:21:24;10.10;99.90
15666;DHT22;20725;51.196;3.510;2022-10-31T01:24:12;10.10;99.90
15666;DHT22;20725;51.196;3.510;2022-10-31T01:26:40;10.10;99.90
15666;DHT22;20725;51.196;3.510;2022-10-31T01:29:15;10.30;99.90
15666;DHT22;20725;51.196;3.510;2022-10-31T01:31:42;10.20;99.90
15666;DHT22;20725;51.196;3.510;2022-10-31T01:34:13;10.30;99.90
15666;DHT22;20725;51.196;3.510;2022-10-31T01:36:43;10.30;99.90
15666;DHT22;20725;51.196;3.510;2022-10-31T01:39:14;10.30;99.90
15666;DHT22;20725;51.196;3.510;2022-10-31T01:41:43;10.30;99.90
15666;DHT22;20725;51.196;3.510;2022-10-31T01:47:18;10.30;99.90
15666;DHT22;20725;51.196;3.510;2022-10-31T01:49:51;10.20;99.90
15666;DHT22;20725;51.196;3.510;2022-10-31T01:52:24;10.20;99.90
15666;DHT22;20725;51.196;3.510;2022-10-31T01:54:55;10.10;99.90
15666;DHT22;20725;51.196;3.510;2022-10-31T01:57:23;10.10;99.90
15666;DHT22;20725;51.196;3.510;2022-10-31T01:59:54;10.00;99.90
15666;DHT22;20725;51.196;3.510;2022-10-31T02:02:25;9.90;99.90
15666;DHT22;20725;51.196;3.510;2022-10-31T02:04:58;9.90;99.90
15666;DHT22;20725;51.196;3.510;2022-10-31T02:07:31;9.90;99.90
15666;DHT22;20725;51.196;3.510;2022-10-31T02:10:05;9.90;99.90
15666;DHT22;20725;51.196;3.510;2022-10-31T02:12:32;9.90;99.90
15666;DHT22;20725;51.196;3.510;2022-10-31T02:15:03;9.90;99.90
15666;DHT22;20725;51.196;3.510;2022-10-31T02:17:33;9.90;99.90
15666;DHT22;20725;51.196;3.510;2022-10-31T02:20:12;9.80;99.90
15666;DHT22;20725;51.196;3.510;2022-10-31T02:23:01;9.80;99.90
15666;DHT22;20725;51.196;3.510;2022-10-31T02:25:48;9.80;99.90
15666;DHT22;20725;51.196;3.510;2022-10-31T02:28:45;9.70;99.90
15666;DHT22;20725;51.196;3.510;2022-10-31T02:31:27;9.60;99.90
15666;DHT22;20725;51.196;3.510;2022-10-31T02:34:00;9.60;99.90
15666;DHT22;20725;51.196;3.510;2022-10-31T02:36:39;9.40;99.90
15666;DHT22;20725;51.196;3.510;2022-10-31T02:39:16;9.50;99.90
15666;DHT22;20725;51.196;3.510;2022-10-31T02:41:48;9.50;99.90
15666;DHT22;20725;51.196;3.510;2022-10-31T02:44:21;9.40;99.90
15666;DHT22;20725;51.196;3.510;2022-10-31T02:46:58;9.50;99.90
15666;DHT22;20725;51.196;3.510;2022-10-31T02:49:43;9.50;99.90
15666;DHT22;20725;51.196;3.510;2022-10-31T02:52:19;9.50;99.90
15666;DHT22;20725;51.196;3.510;2022-10-31T02:54:48;9.60;99.90
15666;DHT22;20725;51.196;3.510;2022-10-31T02:57:24;9.60;99.90
15666;DHT22;20725;51.196;3.510;2022-10-31T03:00:03;9.60;99.90
15666;DHT22;20725;51.196;3.510;2022-10-31T03:02:40;9.60;99.90
15666;DHT22;20725;51.196;3.510;2022-10-31T03:05:27;9.70;99.90
15666;DHT22;20725;51.196;3.510;2022-10-31T03:08:03;9.70;99.90
15666;DHT22;20725;51.196;3.510;2022-10-31T03:10:40;9.70;99.90
15666;DHT22;20725;51.196;3.510;2022-10-31T03:13:12;9.80;99.90
15666;DHT22;20725;51.196;3.510;2022-10-31T03:15:43;9.70;99.90
15666;DHT22;20725;51.196;3.510;2022-10-31T03:18:15;9.70;99.90
15666;DHT22;20725;51.196;3.510;2022-10-31T03:20:49;9.70;99.90
15666;DHT22;20725;51.196;3.510;2022-10-31T03:23:19;9.80;99.90
15666;DHT22;20725;51.196;3.510;2022-10-31T03:25:47;9.80;99.90
15666;DHT22;20725;51.196;3.510;2022-10-31T03:28:19;9.80;99.90
15666;DHT22;20725;51.196;3.510;2022-10-31T03:30:51;9.80;99.90
15666;DHT22;20725;51.196;3.510;2022-10-31T03:33:24;9.70;99.90
15666;DHT22;20725;51.196;3.510;2022-10-31T03:35:55;9.70;99.90
15666;DHT22;20725;51.196;3.510;2022-10-31T03:38:24;9.70;99.90
15666;DHT22;20725;51.196;3.510;2022-10-31T03:40:54;9.60;99.90
15666;DHT22;20725;51.196;3.510;2022-10-31T03:43:26;9.60;99.90
15666;DHT22;20725;51.196;3.510;2022-10-31T03:45:53;9.60;99.90
15666;DHT22;20725;51.196;3.510;2022-10-31T03:48:23;9.50;99.90
15666;DHT22;20725;51.196;3.510;2022-10-31T03:50:53;9.50;99.90
15666;DHT22;20725;51.196;3.510;2022-10-31T03:53:26;9.50;99.90
15666;DHT22;20725;51.196;3.510;2022-10-31T03:55:59;9.50;99.90
15666;DHT22;20725;51.196;3.510;2022-10-31T03:58:29;9.40;99.90
15666;DHT22;20725;51.196;3.510;2022-10-31T04:01:01;9.40;99.90
15666;DHT22;20725;51.196;3.510;2022-10-31T04:03:33;9.40;99.90
15666;DHT22;20725;51.196;3.510;2022-10-31T04:06:04;9.40;99.90
15666;DHT22;20725;51.196;3.510;2022-10-31T04:08:36;9.30;99.90
15666;DHT22;20725;51.196;3.510;2022-10-31T04:11:08;9.30;99.90
15666;DHT22;20725;51.196;3.510;2022-10-31T04:13:37;9.30;99.90
15666;DHT22;20725;51.196;3.510;2022-10-31T04:16:07;9.20;99.90
15666;DHT22;20725;51.196;3.510;2022-10-31T04:18:36;9.20;99.90
15666;DHT22;20725;51.196;3.510;2022-10-31T04:21:05;9.20;99.90
15666;DHT22;20725;51.196;3.510;2022-10-31T04:23:34;9.20;99.90
15666;DHT22;20725;51.196;3.510;2022-10-31T04:26:01;9.20;99.90
15666;DHT22;20725;51.196;3.510;2022-10-31T04:28:28;9.20;99.90
15666;DHT22;20725;51.196;3.510;2022-10-31T04:30:55;9.20;99.90
15666;DHT22;20725;51.196;3.510;2022-10-31T04:33:22;9.20;99.90
15666;DHT22;20725;51.196;3.510;2022-10-31T04:35:51;9.20;99.90
15666;DHT22;20725;51.196;3.510;2022-10-31T04:38:18;9.20;99.90
15666;DHT22;20725;51.196;3.510;2022-10-31T04:40:45;9.20;99.90
15666;DHT22;20725;51.196;3.510;2022-10-31T04:43:13;9.20;99.90
15666;DHT22;20725;51.196;3.510;2022-10-31T04:45:40;9.10;99.90
15666;DHT22;20725;51.196;3.510;2022-10-31T04:48:07;9.10;99.90
15666;DHT22;20725;51.196;3.510;2022-10-31T04:50:34;9.10;99.90
15666;DHT22;20725;51.196;3.510;2022-10-31T04:53:03;9.00;99.90
15666;DHT22;20725;51.196;3.510;2022-10-31T04:55:30;9.00;99.90
15666;DHT22;20725;51.196;3.510;2022-10-31T04:57:57;9.10;99.90
15666;DHT22;20725;51.196;3.510;2022-10-31T05:00:25;9.10;99.90
15666;DHT22;20725;51.196;3.510;2022-10-31T05:02:53;9.00;99.90
15666;DHT22;20725;51.196;3.510;2022-10-31T05:05:22;9.00;99.90
15666;DHT22;20725;51.196;3.510;2022-10-31T05:07:51;9.00;99.90
15666;DHT22;20725;51.196;3.510;2022-10-31T05:10:22;9.00;99.90
15666;DHT22;20725;51.196;3.510;2022-10-31T05:12:51;9.10;99.90
15666;DHT22;20725;51.196;3.510;2022-10-31T05:15:19;9.10;99.90
15666;DHT22;20725;51.196;3.510;2022-10-31T05:17:46;9.00;99.90
15666;DHT22;20725;51.196;3.510;2022-10-31T05:20:15;9.00;99.90
15666;DHT22;20725;51.196;3.510;2022-10-31T05:22:43;9.00;99.90
15666;DHT22;20725;51.196;3.510;2022-10-31T05:25:10;9.00;99.90
15666;DHT22;20725;51.196;3.510;2022-10-31T05:27:40;9.00;99.90
15666;DHT22;20725;51.196;3.510;2022-10-31T05:30:09;9.00;99.90
15666;DHT22;20725;51.196;3.510;2022-10-31T05:32:37;9.00;99.90
15666;DHT22;20725;51.196;3.510;2022-10-31T05:35:06;8.90;99.90
15666;DHT22;20725;51.196;3.510;2022-10-31T05:37:34;8.90;99.90
15666;DHT22;20725;51.196;3.510;2022-10-31T05:40:01;8.90;99.90
15666;DHT22;20725;51.196;3.510;2022-10-31T05:42:29;8.90;99.90
15666;DHT22;20725;51.196;3.510;2022-10-31T05:44:58;8.90;99.90
15666;DHT22;20725;51.196;3.510;2022-10-31T05:47:25;8.90;99.90
15666;DHT22;20725;51.196;3.510;2022-10-31T05:49:53;8.90;99.90
15666;DHT22;20725;51.196;3.510;2022-10-31T05:52:20;8.90;99.90
15666;DHT22;20725;51.196;3.510;2022-10-31T05:54:47;9.00;99.90
15666;DHT22;20725;51.196;3.510;2022-10-31T05:57:14;9.00;99.90
15666;DHT22;20725;51.196;3.510;2022-10-31T05:59:41;9.00;99.90
15666;DHT22;20725;51.196;3.510;2022-10-31T06:02:10;9.00;99.90
15666;DHT22;20725;51.196;3.510;2022-10-31T06:04:37;8.90;99.90
15666;DHT22;20725;51.196;3.510;2022-10-31T06:07:04;8.90;99.90
15666;DHT22;20725;51.196;3.510;2022-10-31T06:09:31;8.90;99.90
15666;DHT22;20725;51.196;3.510;2022-10-31T06:11:58;8.90;99.90
15666;DHT22;20725;51.196;3.510;2022-10-31T06:14:26;8.90;99.90
15666;DHT22;20725;51.196;3.510;2022-10-31T06:16:54;8.90;99.90
15666;DHT22;20725;51.196;3.510;2022-10-31T06:19:23;8.90;99.90
15666;DHT22;20725;51.196;3.510;2022-10-31T06:21:50;8.90;99.90
15666;DHT22;20725;51.196;3.510;2022-10-31T06:24:17;8.90;99.90
15666;DHT22;20725;51.196;3.510;2022-10-31T06:26:44;8.90;99.90
15666;DHT22;20725;51.196;3.510;2022-10-31T06:29:12;8.90;99.90
15666;DHT22;20725;51.196;3.510;2022-10-31T06:31:39;8.90;99.90
15666;DHT22;20725;51.196;3.510;2022-10-31T06:34:06;8.90;99.90
15666;DHT22;20725;51.196;3.510;2022-10-31T06:36:35;8.90;99.90
15666;DHT22;20725;51.196;3.510;2022-10-31T06:39:02;8.80;99.90
15666;DHT22;20725;51.196;3.510;2022-10-31T06:41:30;8.90;99.90
15666;DHT22;20725;51.196;3.510;2022-10-31T06:43:58;8.90;99.90
15666;DHT22;20725;51.196;3.510;2022-10-31T06:46:25;9.00;99.90
15666;DHT22;20725;51.196;3.510;2022-10-31T06:48:53;9.00;99.90
15666;DHT22;20725;51.196;3.510;2022-10-31T06:51:20;9.00;99.90
15666;DHT22;20725;51.196;3.510;2022-10-31T06:53:49;9.00;99.90
15666;DHT22;20725;51.196;3.510;2022-10-31T06:56:16;9.10;99.90
15666;DHT22;20725;51.196;3.510;2022-10-31T06:58:43;9.20;99.90
15666;DHT22;20725;51.196;3.510;2022-10-31T07:01:11;9.30;99.90
15666;DHT22;20725;51.196;3.510;2022-10-31T07:03:46;9.30;99.90
15666;DHT22;20725;51.196;3.510;2022-10-31T07:06:16;9.30;99.90
15666;DHT22;20725;51.196;3.510;2022-10-31T07:08:46;9.40;99.90
15666;DHT22;20725;51.196;3.510;2022-10-31T07:11:15;9.50;99.90
15666;DHT22;20725;51.196;3.510;2022-10-31T07:13:42;9.60;99.90
15666;DHT22;20725;51.196;3.510;2022-10-31T07:16:09;9.60;99.90
15666;DHT22;20725;51.196;3.510;2022-10-31T07:18:38;9.70;99.90
15666;DHT22;20725;51.196;3.510;2022-10-31T07:21:06;9.70;99.90
15666;DHT22;20725;51.196;3.510;2022-10-31T07:23:33;9.80;99.90
15666;DHT22;20725;51.196;3.510;2022-10-31T07:26:01;9.90;99.90
15666;DHT22;20725;51.196;3.510;2022-10-31T07:28:34;9.90;99.90
15666;DHT22;20725;51.196;3.510;2022-10-31T07:31:08;10.00;99.90
15666;DHT22;20725;51.196;3.510;2022-10-31T07:33:36;10.10;99.90
15666;DHT22;20725;51.196;3.510;2022-10-31T07:36:04;10.10;99.90
15666;DHT22;20725;51.196;3.510;2022-10-31T07:38:34;10.30;99.90
15666;DHT22;20725;51.196;3.510;2022-10-31T07:41:01;10.50;99.90
15666;DHT22;20725;51.196;3.510;2022-10-31T07:46:30;10.90;99.90
15666;DHT22;20725;51.196;3.510;2022-10-31T07:49:21;11.10;99.90
15666;DHT22;20725;51.196;3.510;2022-10-31T07:51:52;11.40;99.90
15666;DHT22;20725;51.196;3.510;2022-10-31T07:54:38;11.70;99.90
15666;DHT22;20725;51.196;3.510;2022-10-31T07:57:41;12.00;99.90
15666;DHT22;20725;51.196;3.510;2022-10-31T08:00:18;12.40;99.90
15666;DHT22;20725;51.196;3.510;2022-10-31T08:02:47;12.60;99.90
15666;DHT22;20725;51.196;3.510;2022-10-31T08:05:22;12.70;99.90
15666;DHT22;20725;51.196;3.510;2022-10-31T08:07:53;12.90;99.90
15666;DHT22;20725;51.196;3.510;2022-10-31T08:10:28;13.30;99.90
15666;DHT22;20725;51.196;3.510;2022-10-31T08:13:24;13.70;99.90
15666;DHT22;20725;51.196;3.510;2022-10-31T08:16:01;14.30;99.90
15666;DHT22;20725;51.196;3.510;2022-10-31T08:18:44;14.80;99.90
15666;DHT22;20725;51.196;3.510;2022-10-31T08:21:47;15.30;99.90
15666;DHT22;20725;51.196;3.510;2022-10-31T08:24:17;15.80;99.90
15666;DHT22;20725;51.196;3.510;2022-10-31T08:26:58;16.70;99.90
15666;DHT22;20725;51.196;3.510;2022-10-31T08:29:41;17.60;99.90
15666;DHT22;20725;51.196;3.510;2022-10-31T08:32:29;19.10;99.00
15666;DHT22;20725;51.196;3.510;2022-10-31T08:35:02;20.30;97.30
15666;DHT22;20725;51.196;3.510;2022-10-31T08:38:27;20.70;94.80
15666;DHT22;20725;51.196;3.510;2022-10-31T08:41:12;20.80;92.00
15666;DHT22;20725;51.196;3.510;2022-10-31T08:43:52;23.10;91.10
15666;DHT22;20725;51.196;3.510;2022-10-31T08:46:46;24.60;82.00
15666;DHT22;20725;51.196;3.510;2022-10-31T08:52:50;23.80;63.00
15666;DHT22;20725;51.196;3.510;2022-10-31T08:55:35;21.90;67.60
15666;DHT22;20725;51.196;3.510;2022-10-31T08:58:26;21.20;73.80
15666;DHT22;20725;51.196;3.510;2022-10-31T09:01:00;21.00;72.00
15666;DHT22;20725;51.196;3.510;2022-10-31T09:03:44;20.20;75.60
15666;DHT22;20725;51.196;3.510;2022-10-31T09:07:04;19.40;79.40
15666;DHT22;20725;51.196;3.510;2022-10-31T09:09:57;19.00;80.20
15666;DHT22;20725;51.196;3.510;2022-10-31T09:12:53;18.20;85.70
15666;DHT22;20725;51.196;3.510;2022-10-31T09:15:39;17.90;87.10
15666;DHT22;20725;51.196;3.510;2022-10-31T09:18:13;17.50;89.80
15666;DHT22;20725;51.196;3.510;2022-10-31T09:21:05;16.80;91.60
15666;DHT22;20725;51.196;3.510;2022-10-31T09:24:21;16.20;94.00
15666;DHT22;20725;51.196;3.510;2022-10-31T09:27:25;16.00;95.20
15666;DHT22;20725;51.196;3.510;2022-10-31T09:30:47;16.00;95.40
15666;DHT22;20725;51.196;3.510;2022-10-31T09:33:06;15.60;95.90
15666;DHT22;20725;51.196;3.510;2022-10-31T09:38:48;15.30;98.10
15666;DHT22;20725;51.196;3.510;2022-10-31T09:41:45;15.40;98.40
15666;DHT22;20725;51.196;3.510;2022-10-31T09:47:55;15.30;99.20
15666;DHT22;20725;51.196;3.510;2022-10-31T09:51:07;15.50;99.70
15666;DHT22;20725;51.196;3.510;2022-10-31T09:53:48;16.00;98.60
15666;DHT22;20725;51.196;3.510;2022-10-31T09:56:37;16.40;97.50
15666;DHT22;20725;51.196;3.510;2022-10-31T09:59:16;16.20;98.00
15666;DHT22;20725;51.196;3.510;2022-10-31T10:02:05;16.20;98.00
15666;DHT22;20725;51.196;3.510;2022-10-31T10:08:08;16.20;98.30
15666;DHT22;20725;51.196;3.510;2022-10-31T10:10:51;16.70;97.60
15666;DHT22;20725;51.196;3.510;2022-10-31T10:13:51;17.00;96.60
15666;DHT22;20725;51.196;3.510;2022-10-31T10:16:57;17.50;95.80
15666;DHT22;20725;51.196;3.510;2022-10-31T10:20:08;17.90;95.00
15666;DHT22;20725;51.196;3.510;2022-10-31T10:22:52;18.20;93.70
15666;DHT22;20725;51.196;3.510;2022-10-31T10:26:54;18.40;93.40
15666;DHT22;20725;51.196;3.510;2022-10-31T10:32:43;17.90;94.00
15666;DHT22;20725;51.196;3.510;2022-10-31T10:38:21;17.90;94.30
15666;DHT22;20725;51.196;3.510;2022-10-31T10:40:58;17.90;94.40
15666;DHT22;20725;51.196;3.510;2022-10-31T10:43:59;18.00;94.00
15666;DHT22;20725;51.196;3.510;2022-10-31T10:47:02;18.10;93.60
15666;DHT22;20725;51.196;3.510;2022-10-31T10:49:52;18.10;93.70
15666;DHT22;20725;51.196;3.510;2022-10-31T10:52:54;18.10;93.60
15666;DHT22;20725;51.196;3.510;2022-10-31T11:05:31;17.80;94.00
15666;DHT22;20725;51.196;3.510;2022-10-31T11:08:34;18.00;94.00
15666;DHT22;20725;51.196;3.510;2022-10-31T11:11:29;18.00;94.20
15666;DHT22;20725;51.196;3.510;2022-10-31T11:14:26;18.30;93.50
15666;DHT22;20725;51.196;3.510;2022-10-31T11:17:15;18.60;93.00
15666;DHT22;20725;51.196;3.510;2022-10-31T11:23:46;20.90;90.40
15666;DHT22;20725;51.196;3.510;2022-10-31T11:26:22;21.50;85.20
15666;DHT22;20725;51.196;3.510;2022-10-31T11:29:01;21.70;84.20
15666;DHT22;20725;51.196;3.510;2022-10-31T11:41:33;25.60;63.10
15666;DHT22;20725;51.196;3.510;2022-10-31T11:44:48;24.80;63.80
15666;DHT22;20725;51.196;3.510;2022-10-31T11:47:56;23.80;65.20
15666;DHT22;20725;51.196;3.510;2022-10-31T11:51:04;23.30;67.00
15666;DHT22;20725;51.196;3.510;2022-10-31T11:59:56;22.60;68.70
15666;DHT22;20725;51.196;3.510;2022-10-31T12:03:12;22.30;69.80
15666;DHT22;20725;51.196;3.510;2022-10-31T12:05:56;22.00;69.90
15666;DHT22;20725;51.196;3.510;2022-10-31T12:09:17;21.70;72.30
15666;DHT22;20725;51.196;3.510;2022-10-31T12:15:36;21.10;71.70
15666;DHT22;20725;51.196;3.510;2022-10-31T12:21:49;20.80;75.40
15666;DHT22;20725;51.196;3.510;2022-10-31T12:25:20;20.80;75.70
15666;DHT22;20725;51.196;3.510;2022-10-31T12:31:07;20.80;76.00
15666;DHT22;20725;51.196;3.510;2022-10-31T12:34:38;21.00;76.30
15666;DHT22;20725;51.196;3.510;2022-10-31T12:38:08;21.20;74.10
15666;DHT22;20725;51.196;3.510;2022-10-31T12:40:56;21.00;74.80
15666;DHT22;20725;51.196;3.510;2022-10-31T12:53:39;21.00;75.70
15666;DHT22;20725;51.196;3.510;2022-10-31T12:58:56;20.70;76.50
15666;DHT22;20725;51.196;3.510;2022-10-31T12:59:37;20.60;76.40
15666;DHT22;20725;51.196;3.510;2022-10-31T13:03:09;20.20;78.20
15666;DHT22;20725;51.196;3.510;2022-10-31T13:05:33;20.10;79.30
15666;DHT22;20725;51.196;3.510;2022-10-31T13:09:13;20.00;80.00
15666;DHT22;20725;51.196;3.510;2022-10-31T13:11:14;19.70;80.50
15666;DHT22;20725;51.196;3.510;2022-10-31T13:13:54;19.40;82.80
15666;DHT22;20725;51.196;3.510;2022-10-31T13:17:24;19.30;83.10
15666;DHT22;20725;51.196;3.510;2022-10-31T13:20:12;19.10;84.60
15666;DHT22;20725;51.196;3.510;2022-10-31T13:24:58;19.20;85.30
15666;DHT22;20725;51.196;3.510;2022-10-31T13:25:53;19.20;85.20
15666;DHT22;20725;51.196;3.510;2022-10-31T13:28:38;19.30;85.30
15666;DHT22;20725;51.196;3.510;2022-10-31T13:31:58;19.20;85.70
15666;DHT22;20725;51.196;3.510;2022-10-31T13:34:52;19.10;86.40
15666;DHT22;20725;51.196;3.510;2022-10-31T13:37:43;18.90;86.60
15666;DHT22;20725;51.196;3.510;2022-10-31T13:40:58;18.90;87.40
15666;DHT22;20725;51.196;3.510;2022-10-31T13:44:14;19.00;88.20
15666;DHT22;20725;51.196;3.510;2022-10-31T13:47:22;19.20;87.60
15666;DHT22;20725;51.196;3.510;2022-10-31T13:50:04;19.50;87.10
15666;DHT22;20725;51.196;3.510;2022-10-31T14:03:21;23.30;79.50
15666;DHT22;20725;51.196;3.510;2022-10-31T14:05:55;26.60;61.80
15666;DHT22;20725;51.196;3.510;2022-10-31T14:08:25;26.00;60.90
15666;DHT22;20725;51.196;3.510;2022-10-31T14:11:08;24.90;61.90
15666;DHT22;20725;51.196;3.510;2022-10-31T14:14:54;23.40;65.70
15666;DHT22;20725;51.196;3.510;2022-10-31T14:17:28;22.50;68.40
15666;DHT22;20725;51.196;3.510;2022-10-31T14:20:43;21.50;72.40
15666;DHT22;20725;51.196;3.510;2022-10-31T14:23:38;21.00;75.10
15666;DHT22;20725;51.196;3.510;2022-10-31T14:26:34;20.90;76.60
15666;DHT22;20725;51.196;3.510;2022-10-31T14:29:24;21.40;75.40
15666;DHT22;20725;51.196;3.510;2022-10-31T14:31:57;21.20;75.30
15666;DHT22;20725;51.196;3.510;2022-10-31T14:34:28;20.90;75.80
15666;DHT22;20725;51.196;3.510;2022-10-31T14:37:28;20.70;76.70
15666;DHT22;20725;51.196;3.510;2022-10-31T14:40:22;20.50;78.40
15666;DHT22;20725;51.196;3.510;2022-10-31T14:43:29;20.30;79.50
15666;DHT22;20725;51.196;3.510;2022-10-31T14:46:10;20.10;80.60
15666;DHT22;20725;51.196;3.510;2022-10-31T14:49:08;19.80;81.40
15666;DHT22;20725;51.196;3.510;2022-10-31T14:51:48;19.70;82.80
15666;DHT22;20725;51.196;3.510;2022-10-31T14:54:53;19.60;82.50
15666;DHT22;20725;51.196;3.510;2022-10-31T14:57:57;19.40;83.90
15666;DHT22;20725;51.196;3.510;2022-10-31T15:00:55;19.30;85.60
15666;DHT22;20725;51.196;3.510;2022-10-31T15:03:59;19.20;86.40
15666;DHT22;20725;51.196;3.510;2022-10-31T15:10:19;19.10;88.30
15666;DHT22;20725;51.196;3.510;2022-10-31T15:16:30;18.80;90.00
15666;DHT22;20725;51.196;3.510;2022-10-31T15:19:49;18.50;90.10
15666;DHT22;20725;51.196;3.510;2022-10-31T15:28:29;18.00;91.90
15666;DHT22;20725;51.196;3.510;2022-10-31T15:41:30;17.80;93.80
15666;DHT22;20725;51.196;3.510;2022-10-31T15:50:56;17.50;94.40
15666;DHT22;20725;51.196;3.510;2022-10-31T15:54:00;17.40;94.50
15666;DHT22;20725;51.196;3.510;2022-10-31T15:57:02;17.20;95.10
15666;DHT22;20725;51.196;3.510;2022-10-31T16:00:20;17.00;94.90
15666;DHT22;20725;51.196;3.510;2022-10-31T16:03:28;16.90;95.70
15666;DHT22;20725;51.196;3.510;2022-10-31T16:11:16;16.40;97.00
15666;DHT22;20725;51.196;3.510;2022-10-31T16:15:45;16.20;98.20
15666;DHT22;20725;51.196;3.510;2022-10-31T16:18:45;16.00;98.60
15666;DHT22;20725;51.196;3.510;2022-10-31T16:22:02;15.80;98.80
15666;DHT22;20725;51.196;3.510;2022-10-31T16:25:01;15.70;99.40
15666;DHT22;20725;51.196;3.510;2022-10-31T16:27:36;15.60;99.90
15666;DHT22;20725;51.196;3.510;2022-10-31T16:30:34;15.40;99.90
15666;DHT22;20725;51.196;3.510;2022-10-31T16:33:27;15.40;99.90
15666;DHT22;20725;51.196;3.510;2022-10-31T16:36:29;15.30;99.90
15666;DHT22;20725;51.196;3.510;2022-10-31T16:39:04;15.10;99.90
15666;DHT22;20725;51.196;3.510;2022-10-31T16:42:20;15.00;99.90
15666;DHT22;20725;51.196;3.510;2022-10-31T16:44:51;15.00;99.90
15666;DHT22;20725;51.196;3.510;2022-10-31T16:47:19;14.90;99.90
15666;DHT22;20725;51.196;3.510;2022-10-31T16:49:51;14.80;99.90
15666;DHT22;20725;51.196;3.510;2022-10-31T16:52:31;14.80;99.90
15666;DHT22;20725;51.196;3.510;2022-10-31T16:55:00;14.80;99.90
15666;DHT22;20725;51.196;3.510;2022-10-31T16:57:30;14.80;99.90
15666;DHT22;20725;51.196;3.510;2022-10-31T17:00:23;14.90;99.90
15666;DHT22;20725;51.196;3.510;2022-10-31T17:02:58;14.90;99.90
15666;DHT22;20725;51.196;3.510;2022-10-31T17:05:25;14.90;99.90
15666;DHT22;20725;51.196;3.510;2022-10-31T17:07:55;15.00;99.90
15666;DHT22;20725;51.196;3.510;2022-10-31T17:10:27;15.00;99.90
15666;DHT22;20725;51.196;3.510;2022-10-31T17:13:02;15.00;99.90
15666;DHT22;20725;51.196;3.510;2022-10-31T17:15:39;15.10;99.90
15666;DHT22;20725;51.196;3.510;2022-10-31T17:18:40;15.10;99.90
15666;DHT22;20725;51.196;3.510;2022-10-31T17:21:01;15.10;99.90
15666;DHT22;20725;51.196;3.510;2022-10-31T17:23:31;15.10;99.90
15666;DHT22;20725;51.196;3.510;2022-10-31T17:26:01;15.10;99.90
15666;DHT22;20725;51.196;3.510;2022-10-31T17:28:39;15.00;99.90
15666;DHT22;20725;51.196;3.510;2022-10-31T17:31:17;15.00;99.90
15666;DHT22;20725;51.196;3.510;2022-10-31T17:33:48;14.90;99.90
15666;DHT22;20725;51.196;3.510;2022-10-31T17:36:16;15.00;99.90
15666;DHT22;20725;51.196;3.510;2022-10-31T17:38:45;14.90;99.90
15666;DHT22;20725;51.196;3.510;2022-10-31T17:41:14;14.80;99.90
15666;DHT22;20725;51.196;3.510;2022-10-31T17:43:47;14.90;99.90
15666;DHT22;20725;51.196;3.510;2022-10-31T17:46:20;14.80;99.90
15666;DHT22;20725;51.196;3.510;2022-10-31T17:48:47;14.80;99.90
15666;DHT22;20725;51.196;3.510;2022-10-31T17:51:17;14.90;99.90
15666;DHT22;20725;51.196;3.510;2022-10-31T17:53:57;14.90;99.90
15666;DHT22;20725;51.196;3.510;2022-10-31T17:56:37;14.90;99.90
15666;DHT22;20725;51.196;3.510;2022-10-31T17:59:08;14.90;99.90
15666;DHT22;20725;51.196;3.510;2022-10-31T18:01:49;14.90;99.90
15666;DHT22;20725;51.196;3.510;2022-10-31T18:04:18;14.90;99.90
15666;DHT22;20725;51.196;3.510;2022-10-31T18:06:46;14.90;99.90
15666;DHT22;20725;51.196;3.510;2022-10-31T18:09:26;15.00;99.90
15666;DHT22;20725;51.196;3.510;2022-10-31T18:11:56;15.10;99.90
15666;DHT22;20725;51.196;3.510;2022-10-31T18:14:25;15.10;99.90
15666;DHT22;20725;51.196;3.510;2022-10-31T18:16:54;15.10;99.90
15666;DHT22;20725;51.196;3.510;2022-10-31T18:19:23;15.10;99.90
15666;DHT22;20725;51.196;3.510;2022-10-31T18:21:53;15.20;99.90
15666;DHT22;20725;51.196;3.510;2022-10-31T18:24:39;15.10;99.90
15666;DHT22;20725;51.196;3.510;2022-10-31T18:27:13;15.10;99.90
15666;DHT22;20725;51.196;3.510;2022-10-31T18:29:58;15.20;99.90
15666;DHT22;20725;51.196;3.510;2022-10-31T18:32:25;15.20;99.90
15666;DHT22;20725;51.196;3.510;2022-10-31T18:34:55;15.20;99.90
15666;DHT22;20725;51.196;3.510;2022-10-31T18:37:24;15.10;99.90
15666;DHT22;20725;51.196;3.510;2022-10-31T18:39:58;15.10;99.90
15666;DHT22;20725;51.196;3.510;2022-10-31T18:42:34;15.20;99.90
15666;DHT22;20725;51.196;3.510;2022-10-31T18:45:07;15.20;99.90
15666;DHT22;20725;51.196;3.510;2022-10-31T18:47:41;15.20;99.90
15666;DHT22;20725;51.196;3.510;2022-10-31T18:50:12;15.20;99.90
15666;DHT22;20725;51.196;3.510;2022-10-31T18:52:44;15.20;99.90
15666;DHT22;20725;51.196;3.510;2022-10-31T18:55:11;15.20;99.90